Stations météo

réclame
Mon MeteoGroup
Le Puy, France (7471): Température de l'air & dewpoint: 26.05.2020 11:00:00 - 01.06.2020 11:00:00 (CEST)Le Puy, France (7471): Température de l'air 5cm: 26.05.2020 11:00:00 - 01.06.2020 11:00:00 (CEST)Le Puy, France (7471): Température de l'air -20cm & Température de l'air -100cm: 26.05.2020 11:00:00 - 01.06.2020 11:00:00 (CEST)Le Puy, France (7471): Vitesse du vent & gusts: 26.05.2020 11:00:00 - 01.06.2020 11:00:00 (CEST)Le Puy, France (7471): Direction du vent: 26.05.2020 11:00:00 - 01.06.2020 11:00:00 (CEST)Le Puy, France (7471): visibility: 26.05.2020 11:00:00 - 01.06.2020 11:00:00 (CEST)Le Puy, France (7471): Ensoleillement: 26.05.2020 11:00:00 - 01.06.2020 11:00:00 (CEST)Le Puy, France (7471): Quantités de précipitations: 26.05.2020 11:00:00 - 01.06.2020 11:00:00 (CEST)
Date & Time tt [°C] td [°C] tt 5cm [°C] tt -20cm [°C] tt -100cm [°C] ff [km/h] ff [knt] fx [km/h] fx [knt] dd vv [km] sd [min] rr [mm]
01.06.2020 11:00:00 - - - - - - - - - - - - -
01.06.2020 10:00:00 17,9 10,5 24,6 16,2 12,4 6 4 15 8 ESE 20 60 0,0
01.06.2020 09:00:00 15,3 10,9 21,1 16,3 12,4 3 1 11 6 N 20 60 0,0
01.06.2020 08:00:00 12,8 10,2 13,5 16,4 12,4 3 2 5 3 N 20 60 0,0
01.06.2020 07:00:00 9,9 9,1 7,6 16,5 12,4 2 1 4 2 SW 20 31 0,0
01.06.2020 06:00:00 9,1 7,9 7,9 16,6 12,4 2 1 6 3 S 14 0 0,0
01.06.2020 05:00:00 9,4 8,6 7,1 16,7 12,4 2 1 7 4 NNE 19 0 0,0
01.06.2020 04:00:00 10,3 9,1 7,4 16,8 12,4 4 2 9 5 SW 20 0 0,0
01.06.2020 03:00:00 8,7 7,3 6,5 16,9 12,4 4 2 8 5 SW 20 0 0,0
01.06.2020 02:00:00 9,5 7,6 6,6 17,0 12,4 6 3 11 6 WSW 20 0 0,0
01.06.2020 01:00:00 9,6 7,5 7,3 17,0 12,4 6 3 10 5 SW 20 0 0,0
01.06.2020 00:00:00 10,7 8,5 8,7 17,0 12,4 5 3 15 8 SW 20 0 0,0
31.05.2020 23:00:00 11,9 9,3 9,9 17,0 12,4 5 3 9 5 WSW 20 0 0,0
31.05.2020 22:00:00 14,0 9,8 11,4 16,9 12,4 4 2 9 5 SSE 3,3 0 0,0
31.05.2020 21:00:00 15,7 10,2 15,4 16,8 12,3 4 2 17 9 NW 20 1 0,0
31.05.2020 20:00:00 16,6 10,0 16,4 16,6 12,3 10 6 31 17 SSE 20 0 0,0
31.05.2020 19:00:00 19,8 10,5 20,4 16,5 12,3 14 8 30 16 SE 20 33 0,0
31.05.2020 18:00:00 20,0 9,8 21,2 16,3 12,3 16 9 35 19 E 20 32 0,0
31.05.2020 17:00:00 21,8 10,0 23,5 16,0 12,3 11 6 32 18 ESE 20 25 0,0
31.05.2020 16:00:00 23,9 6,6 26,1 15,8 12,3 7 4 29 16 SSE 20 40 0,0
31.05.2020 15:00:00 23,0 6,3 28,7 15,6 12,3 7 4 27 14 S 20 52 0,0
31.05.2020 14:00:00 21,7 6,8 32,2 15,5 12,3 8 5 18 10 N 20 60 0,0
31.05.2020 13:00:00 21,0 6,9 29,5 15,5 12,3 7 4 21 12 E 20 60 0,0
31.05.2020 12:00:00 19,7 8,7 27,6 15,5 12,3 7 4 16 9 E 15 60 0,0
31.05.2020 11:00:00 18,0 8,3 24,7 15,6 12,3 6 3 15 8 N 20 60 0,0
31.05.2020 10:00:00 15,8 7,5 23,0 15,7 12,3 7 4 13 7 E 20 60 0,0
31.05.2020 09:00:00 12,9 7,6 17,0 15,9 12,3 4 2 9 5 N 20 60 0,0
31.05.2020 08:00:00 9,7 6,2 10,2 16,0 12,3 3 2 6 4 N 20 60 0,0
31.05.2020 07:00:00 7,0 4,8 4,0 16,1 12,3 0 0 9 5 N 20 34 0,0
31.05.2020 06:00:00 5,6 3,9 3,8 16,2 12,3 6 3 11 6 SW 20 0 0,0
31.05.2020 05:00:00 6,5 4,7 2,9 16,4 12,3 6 3 11 6 NW 20 0 0,0
31.05.2020 04:00:00 6,7 4,7 5,0 16,4 12,3 8 4 12 6 SW 20 0 0,0
31.05.2020 03:00:00 7,4 4,9 5,6 16,5 12,3 5 3 11 6 WSW 20 0 0,0
31.05.2020 02:00:00 8,5 5,6 7,2 16,6 12,3 9 5 12 7 SW 20 0 0,0
31.05.2020 01:00:00 9,5 5,9 7,6 16,7 12,3 8 4 10 6 SW 20 0 0,0
31.05.2020 00:00:00 10,9 5,8 8,3 16,6 12,3 6 4 10 5 WSW 20 0 0,0
30.05.2020 23:00:00 13,6 5,7 9,9 16,7 12,3 5 3 14 8 NW 20 0 0,0
30.05.2020 22:00:00 15,0 5,5 10,9 16,6 12,3 3 1 14 7 ENE 17 0 0,0
30.05.2020 21:00:00 17,2 7,0 16,0 16,6 12,3 5 3 16 9 E 20 32 0,0
30.05.2020 20:00:00 19,0 6,5 17,4 16,4 12,3 9 5 24 13 NE 20 29 0,0
30.05.2020 19:00:00 19,0 6,5 19,1 16,3 12,3 10 5 24 13 NNE 20 9 0,0
30.05.2020 18:00:00 20,0 7,0 22,6 16,1 12,3 11 6 21 11 N 20 24 0,0
30.05.2020 17:00:00 20,5 7,8 23,3 15,9 12,2 11 6 21 11 NW 20 6 0,0
30.05.2020 16:00:00 20,2 6,5 23,1 15,8 12,3 7 4 20 11 ENE 20 14 0,0
30.05.2020 15:00:00 19,8 5,8 23,9 15,6 12,3 10 5 17 9 N 20 24 0,0
30.05.2020 14:00:00 19,4 6,1 22,7 15,5 12,2 9 5 22 12 NNE 20 39 0,0
30.05.2020 13:00:00 19,9 5,5 26,8 15,4 12,2 5 3 22 12 S 20 58 0,0
30.05.2020 12:00:00 18,8 7,2 26,9 15,4 12,2 6 3 21 11 ENE 20 60 0,0
30.05.2020 11:00:00 17,3 7,9 24,4 15,5 12,2 9 5 34 18 E 20 60 0,0
30.05.2020 10:00:00 15,3 7,8 19,9 15,6 12,2 5 3 13 7 E 20 60 0,0
30.05.2020 09:00:00 13,2 7,8 18,0 15,8 12,2 3 2 8 4 E 20 60 0,0
30.05.2020 08:00:00 10,3 6,8 9,7 16,0 12,2 2 1 5 3 NNE 20 60 0,0
30.05.2020 07:00:00 5,8 4,6 2,6 16,1 12,2 0 0 9 5 N 20 33 0,0
30.05.2020 06:00:00 4,7 3,5 2,4 16,3 12,2 6 3 9 5 SW 20 0 0,0
30.05.2020 05:00:00 5,4 4,4 2,3 16,4 12,2 5 3 8 4 WSW 20 0 0,0
30.05.2020 04:00:00 5,7 4,3 2,1 16,5 12,2 4 2 8 4 NW 20 0 0,0
30.05.2020 03:00:00 6,3 3,5 2,9 16,6 12,2 4 2 8 4 WSW 20 0 0,0
30.05.2020 02:00:00 7,4 3,4 5,4 16,6 12,2 5 3 12 7 WSW 20 0 0,0
30.05.2020 01:00:00 7,8 3,6 5,5 16,7 12,2 6 3 13 7 WSW 20 0 0,0
30.05.2020 00:00:00 9,1 3,9 7,0 16,8 12,2 7 4 11 6 WSW 20 0 0,0
29.05.2020 23:00:00 10,1 4,0 7,4 16,8 12,2 6 4 11 6 WSW 20 0 0,0
29.05.2020 22:00:00 12,7 4,1 9,3 16,7 12,2 6 3 13 7 WSW 20 0 0,0
29.05.2020 21:00:00 16,3 2,3 13,8 16,6 12,2 7 4 22 12 ENE 20 57 0,0
29.05.2020 20:00:00 18,8 1,7 19,7 16,5 12,2 15 8 25 13 NE 20 60 0,0
29.05.2020 19:00:00 20,1 2,4 21,4 16,3 12,2 15 8 38 20 NE 20 60 0,0
29.05.2020 18:00:00 20,8 2,6 25,9 16,1 12,2 10 6 29 15 NE 20 60 0,0
29.05.2020 17:00:00 21,2 3,4 26,6 15,9 12,2 16 9 35 19 ENE 20 60 0,0
29.05.2020 16:00:00 21,5 0,1 28,0 15,7 12,2 15 8 36 19 ENE 20 60 0,0
29.05.2020 15:00:00 21,2 0,9 28,0 15,6 12,2 15 8 32 18 E 20 60 0,0
29.05.2020 14:00:00 20,8 2,1 27,4 15,5 12,1 12 7 30 16 NNE 4,9 60 0,0
29.05.2020 13:00:00 19,8 4,3 25,9 15,5 12,2 16 9 36 19 NE 20 60 0,0
29.05.2020 12:00:00 18,9 6,7 25,0 15,5 12,1 12 7 29 16 NNE 20 60 0,0
29.05.2020 11:00:00 17,9 8,2 24,9 15,6 12,1 14 8 28 15 E 20 60 0,0
29.05.2020 10:00:00 16,5 7,2 17,9 15,7 12,1 7 4 15 8 NNE 20 58 0,0
29.05.2020 09:00:00 13,5 8,8 15,1 15,8 12,1 2 1 5 3 E 20 25 0,0
29.05.2020 08:00:00 11,9 8,4 8,9 15,9 12,1 0 0 6 4 N 13 22 0,0
29.05.2020 07:00:00 9,0 5,9 5,9 16,1 12,1 6 3 14 7 SW 20 29 0,0
29.05.2020 06:00:00 7,8 5,3 5,8 16,2 12,2 7 4 10 5 SW 20 0 0,0
29.05.2020 05:00:00 7,8 5,3 6,1 16,3 12,1 6 4 10 5 WSW 20 0 0,0
29.05.2020 04:00:00 8,1 5,4 6,4 16,4 12,2 9 5 12 6 SW 20 0 0,0
29.05.2020 03:00:00 8,4 5,3 6,8 16,5 12,1 9 5 13 7 SW 20 0 0,0
29.05.2020 02:00:00 9,4 5,4 7,5 16,6 12,1 8 4 11 6 WSW 20 0 0,0
29.05.2020 01:00:00 10,0 5,4 7,8 16,6 12,1 7 4 11 6 WSW 20 0 0,0
29.05.2020 00:00:00 13,0 5,2 9,1 16,6 12,1 8 4 15 8 WNW 20 0 0,0
28.05.2020 23:00:00 12,4 6,2 9,4 16,6 12,1 6 3 9 5 WSW 20 0 0,0
28.05.2020 22:00:00 15,3 5,8 9,8 16,6 12,1 5 3 18 10 N 20 0 0,0
28.05.2020 21:00:00 17,5 6,4 14,5 16,5 12,1 8 4 25 13 NNE 20 56 0,0
28.05.2020 20:00:00 19,8 6,5 20,8 16,3 12,1 16 9 27 15 NE 20 60 0,0
28.05.2020 19:00:00 20,9 6,8 21,6 16,1 12,1 18 10 31 17 NNE 20 47 0,0
28.05.2020 18:00:00 22,0 7,4 24,4 15,9 12,1 16 9 34 19 ENE 20 58 0,0
28.05.2020 17:00:00 22,2 7,2 28,0 15,7 12,1 17 9 29 16 E 20 60 0,0
28.05.2020 16:00:00 22,5 5,4 28,8 15,5 12,0 14 8 28 15 E 20 60 0,0
28.05.2020 15:00:00 22,1 4,6 29,7 15,3 12,0 14 8 38 20 NE 20 60 0,0
28.05.2020 14:00:00 21,4 6,9 28,9 15,2 12,1 13 7 29 16 ENE 20 60 0,0
28.05.2020 13:00:00 19,9 6,2 29,0 15,2 12,0 7 4 18 10 N 18 60 0,0
28.05.2020 12:00:00 19,5 7,9 26,3 15,2 12,0 5 3 20 11 NE 20 60 0,0
28.05.2020 11:00:00 17,8 7,2 25,5 15,3 12,0 8 4 17 9 E 20 60 0,0
28.05.2020 10:00:00 16,9 7,3 20,8 15,4 12,0 3 2 10 5 NE 20 60 0,0
28.05.2020 09:00:00 13,7 7,0 17,0 15,5 12,1 3 2 9 5 E 20 60 0,0
28.05.2020 08:00:00 10,5 6,4 9,7 15,7 12,0 2 1 5 3 NE 20 60 0,0
28.05.2020 07:00:00 6,2 4,2 2,9 15,8 12,1 0 0 7 4 N 20 32 0,0
28.05.2020 06:00:00 5,6 3,9 0,6 16,0 12,1 5 3 8 4 WSW 20 0 0,0
28.05.2020 05:00:00 5,1 3,3 1,5 16,1 12,1 0 0 5 3 N 20 0 0,0
28.05.2020 04:00:00 7,5 4,6 5,6 16,2 12,0 5 3 13 7 WSW 20 0 0,0
28.05.2020 03:00:00 7,8 5,1 5,9 16,3 12,1 6 4 12 6 WSW 20 0 0,0
28.05.2020 02:00:00 8,8 5,5 6,8 16,3 12,0 8 4 10 5 SW 20 0 0,0
28.05.2020 01:00:00 9,9 5,9 7,4 16,3 12,0 6 4 9 5 W 20 0 0,0
28.05.2020 00:00:00 11,0 6,3 8,1 16,4 12,0 6 3 8 4 W 20 0 0,0
27.05.2020 23:00:00 12,4 6,7 9,6 16,4 12,0 5 3 10 5 W 20 0 0,0
27.05.2020 22:00:00 15,9 6,0 9,9 16,3 12,0 9 5 19 10 N 20 0 0,0
27.05.2020 21:00:00 17,1 5,1 14,5 16,2 12,0 7 4 21 12 NNE 20 51 0,0
27.05.2020 20:00:00 19,6 6,0 20,5 16,0 12,0 14 8 26 14 NE 20 60 0,0
27.05.2020 19:00:00 20,7 5,9 21,9 15,8 12,0 16 9 34 18 ENE 20 60 0,0
27.05.2020 18:00:00 22,2 5,2 27,6 15,5 12,0 10 6 24 13 NE 20 60 0,0
27.05.2020 17:00:00 22,3 0,7 30,6 15,3 12,0 11 6 23 12 NNE 20 60 0,0
27.05.2020 16:00:00 22,0 3,6 29,9 15,1 12,0 11 6 32 17 NNE 20 60 0,0
27.05.2020 15:00:00 21,6 4,2 28,9 14,9 12,0 9 5 20 11 E 19 60 0,0
27.05.2020 14:00:00 20,4 4,0 28,8 14,8 12,0 7 4 24 13 ESE 20 60 0,0
27.05.2020 13:00:00 19,4 4,7 26,9 14,8 12,0 4 2 18 10 ENE 20 60 0,0
27.05.2020 12:00:00 17,9 4,8 25,5 14,8 12,0 8 4 19 10 ENE 20 60 0,0
27.05.2020 11:00:00 16,5 6,3 24,3 14,8 12,0 8 5 19 10 NNE 17 60 0,0
27.05.2020 10:00:00 15,2 5,9 21,1 15,0 12,0 5 3 14 8 NNE 20 60 0,0
27.05.2020 09:00:00 13,3 6,4 16,4 15,1 12,0 3 2 11 6 ENE 20 60 0,0
27.05.2020 08:00:00 10,0 5,2 8,9 15,2 12,0 3 2 7 4 N 20 60 0,0
27.05.2020 07:00:00 7,1 4,1 3,5 15,3 12,0 4 2 8 4 W 20 31 0,0
27.05.2020 06:00:00 6,3 3,6 4,5 15,5 12,0 7 4 12 7 SW 20 0 0,0
27.05.2020 05:00:00 7,4 3,8 4,9 15,6 12,0 7 4 12 7 WSW 20 0 0,0
27.05.2020 04:00:00 9,2 4,4 6,6 15,7 12,0 8 4 13 7 WSW 20 0 0,0
27.05.2020 03:00:00 10,0 5,2 6,4 15,8 12,0 9 5 15 8 WSW 20 0 0,0
27.05.2020 02:00:00 9,7 4,9 6,7 15,9 12,0 5 3 9 5 W 20 0 0,0
27.05.2020 01:00:00 10,7 4,2 6,9 15,9 12,0 4 2 13 7 WNW 20 0 0,0
27.05.2020 00:00:00 12,1 3,8 6,1 15,9 12,0 5 3 15 8 WNW 20 0 0,0
26.05.2020 23:00:00 11,7 3,5 6,4 15,9 12,0 10 6 18 10 N 20 0 0,0
26.05.2020 22:00:00 13,0 3,4 9,7 15,9 12,0 10 5 24 13 N 20 0 0,0
26.05.2020 21:00:00 16,3 4,3 14,4 15,8 12,0 16 9 28 15 NNE 20 43 0,0
26.05.2020 20:00:00 18,6 5,4 19,3 15,6 11,9 18 10 31 17 NE 20 60 0,0
26.05.2020 19:00:00 20,0 5,6 21,0 15,4 12,0 19 10 34 19 NE 20 60 0,0
26.05.2020 18:00:00 20,7 5,1 25,3 15,2 12,0 19 10 35 19 ENE 20 60 0,0
26.05.2020 17:00:00 21,1 4,2 26,7 15,1 12,0 19 11 34 19 NNE 20 60 0,0
26.05.2020 16:00:00 21,0 2,7 27,1 14,8 11,9 16 9 41 22 ENE 20 60 0,0
26.05.2020 15:00:00 20,3 5,9 26,7 14,6 11,9 14 8 33 18 ENE 20 60 0,0
26.05.2020 14:00:00 19,7 5,0 25,2 14,5 11,9 19 10 32 18 NE 20 60 0,0
26.05.2020 13:00:00 18,8 5,6 25,0 14,5 11,9 16 8 34 19 ENE 20 60 0,0
26.05.2020 12:00:00 16,9 7,5 23,3 14,5 12,0 13 7 29 15 ENE 20 60 0,0
26.05.2020 11:00:00 16,0 7,5 21,5 14,6 11,9 13 7 24 13 NE 20 60 0,0

tt = Température de l'air
td = dewpoint
tt 5cm = Température de l'air 5cm
tt -20cm = Température de l'air -20cm
tt -100cm = Température de l'air -100cm
ff = Vitesse du vent
fx = gusts
dd = Direction du vent
vv = visibility
sd = Ensoleillement
rr = Quantités de précipitations

stations d'obs. à proximité